KBGR

Bangor International Airport

Bangor, Maine, USA
METAR KBGR 171453Z 36008KT 1 1/4SM -SN BR BKN005 OVC022 00/M01 A2960 RMK AO2 SFC VIS 1 3/4 SLP027 P0000 60000 I3000 T00001011 57029
Observed Flight Rules
Dec-17 @ 14:53 UTC (10 minutes ago) Instrument Flight Rules
Wind Visibility Clouds Conditions
360° at 8 knots 1 1/4 miles
  • Broken at 500' AGL
  • Overcast at 2,200' AGL
  • Light Snow
  • Mist
Temperatures Readings Precipitation
Current 0°C / 32°F
Dewpoint -1°C / 30°F
Humidity 93%
Altimeter 29.6" Hg
Pressure 1002.7 hPa
Elevation 57
Current Rain 0.005
METAR KBGR 171453Z 36008KT 1 1/4SM -SN BR BKN005 OVC022 00/M01 A2960 RMK AO2 SFC VIS 1 3/4 SLP027 P0000 60000 I3000 T00001011 57029
Observed Flight Rules
Dec-17 @ 14:53 UTC
(10 minutes ago)
IFR
Wind Visibility
360° at 8 knots 1 1/4 miles
Clouds
  • Broken at 500' AGL
  • Overcast at 2,200' AGL
Conditions
  • Light Snow
  • Mist
Temperature Dewpoint
0°C / 32°F -1°C / 30°F
Humidity Altimeter Pressure
93% 29.6" Hg 1002.7 hPa
Current Rain
0.005